Aérodrome :
LOGIN :

S'inscrire | Disclaimer

   EN    FR    IT 

 










Légende :    VFR   VFR Marginal   IFR   IFR Intensif   IFR Très Intensif
Visi : 
Plafond : 
>= 8 km
>= 3000ft
5 à 8 km
1000 à 3000 ft
1500m à 5 km
500 à 1000 ft
800 à 1500m
200 à 500 ft
< 800m
< 200 ft
Symboles :   Orages  Brouillard  Fortes neiges  Fortes précipitations  Vent > 20 kt
SIGMETs :   Divers  Orages  Givrage  Turbulence  Onde Orograph.  Cendres Volcan.







- Altitude de l'aérodrome : 935 ft


EBFS - Florennes

DERNIER METAR :
  • 161525Z 25014KT 9999 -SHRA SCT022 SCT030 05/01 Q0997 WHT BLU TEMPO WHT

METARs EXPIRÉS :
  • 161504Z 24016KT 9999 SCT022 SCT032 05/01 Q0997 WHT BLU TEMPO WHT
  • 161455Z 24016KT 9999 FEW020 SCT033 05/01 Q0997 BLU BLU TEMPO WHT
  • 161425Z 24017KT 9999 FEW025 SCT033 05/00 Q0997 BLU BLU TEMPO WHT
  • 161355Z 25019KT 9999 FEW025 SCT033 05/00 Q0997 BLU BLU TEMPO WHT
  • 161325Z 25020KT 9999 FEW025 SCT033 05/M00 Q997 BLU BLU TEMPO WHT
  • 161255Z 24017KT 9999 FEW023 SCT028 06/M00 Q0996 BLU BLU TEMPO WHT
  • 161225Z 25021KT 9999 FEW023 SCT028 06/M00 Q0997 BLU BLU TEMPO WHT

TAF COR TAF EBFS
Valide du 16 à 13h jusqu'au 16 à 22h UTC


161231Z 1613/1622 27020G30KT 9999 FEW025 SCT030 BKN050
TEMPO 1613/1616 5000 -SHRA SCT020TCU BKN030
PROB40
TEMPO 1613/1616 27023G37KT 4000 SHRA SCT017TCU SCT022 BKN030
BECMG 1616/1618 24015G25KT SCT020 BKN030
TEMPO 1616/1622 4000 -SHRASN SHRAGS FEW008 SCT012 BKN015
PROB40
TEMPO 1616/1622 24020G32KT 3000 SHSNRA FEW006 SCT008TCU BKN012
Pas de NOTAMs connus pour ce terrain.
1 SIGMET publié pour la FIR Brussels (EBBU) :
 
Turbulence forte
EBBU SIGMET 03 VALID 161200/161600 EBBR
EBBU BRUSSELS FIR SEV TURB FCST W OF LINE N5046 E00244-N5115 E00344 SFC/FL050 STNR NC=



MET'MAP, la Météo Aéronautique d'un coup d'oeil ! - Copyright ORBIFLY Décembre 2007 - Disclaimer

ORBIFLY MET'MAP TEAM :

Programmation & Développement : Alexandra Zaïnal
Conception & Développement : Baudouin d'Aumeries
Co-Programmation & Développement : Marc-Olivier Méhu
Soutien technique & logistique : Manuel Goepfert

Contact : metmap@orbifly.com




SOURCES & CREDITS :

   NOAA